sensor_id;sensor_type;location;lat;lon;timestamp;pressure;altitude;pressure_sealevel;temperature;humidity
57048;BME280;42934;54.294;18.598;2023-08-30T00:00:07;99596.69;;;18.86;97.80
57048;BME280;42934;54.294;18.598;2023-08-30T00:02:56;99587.16;;;19.04;96.28
57048;BME280;42934;54.294;18.598;2023-08-30T00:05:26;99593.34;;;19.14;94.91
57048;BME280;42934;54.294;18.598;2023-08-30T00:07:55;99597.13;;;19.12;95.08
57048;BME280;42934;54.294;18.598;2023-08-30T00:10:26;99596.09;;;19.03;95.62
57048;BME280;42934;54.294;18.598;2023-08-30T00:12:55;99598.22;;;18.88;97.07
57048;BME280;42934;54.294;18.598;2023-08-30T00:15:24;99602.44;;;18.91;97.25
57048;BME280;42934;54.294;18.598;2023-08-30T00:17:53;99593.63;;;18.90;97.49
57048;BME280;42934;54.294;18.598;2023-08-30T00:20:22;99611.16;;;18.93;97.23
57048;BME280;42934;54.294;18.598;2023-08-30T00:22:51;99605.72;;;18.94;97.34
57048;BME280;42934;54.294;18.598;2023-08-30T00:25:20;99604.59;;;18.97;97.14
57048;BME280;42934;54.294;18.598;2023-08-30T00:27:50;99594.19;;;18.94;96.89
57048;BME280;42934;54.294;18.598;2023-08-30T00:30:20;99583.81;;;18.91;97.46
57048;BME280;42934;54.294;18.598;2023-08-30T00:32:49;99583.56;;;18.94;96.96
57048;BME280;42934;54.294;18.598;2023-08-30T00:35:18;99576.19;;;18.97;97.15
57048;BME280;42934;54.294;18.598;2023-08-30T00:37:46;99566.19;;;18.90;97.54
57048;BME280;42934;54.294;18.598;2023-08-30T00:40:16;99567.75;;;18.92;97.66
57048;BME280;42934;54.294;18.598;2023-08-30T00:42:45;99566.81;;;19.03;96.53
57048;BME280;42934;54.294;18.598;2023-08-30T00:45:14;99566.69;;;19.04;96.19
57048;BME280;42934;54.294;18.598;2023-08-30T00:47:43;99572.84;;;19.05;95.99
57048;BME280;42934;54.294;18.598;2023-08-30T00:50:13;99574.22;;;18.99;96.58
57048;BME280;42934;54.294;18.598;2023-08-30T00:52:42;99570.91;;;19.07;95.90
57048;BME280;42934;54.294;18.598;2023-08-30T00:55:11;99573.13;;;19.02;96.47
57048;BME280;42934;54.294;18.598;2023-08-30T00:57:40;99572.03;;;19.04;96.06
57048;BME280;42934;54.294;18.598;2023-08-30T01:00:11;99579.63;;;19.09;95.34
57048;BME280;42934;54.294;18.598;2023-08-30T01:02:42;99574.63;;;19.16;95.11
57048;BME280;42934;54.294;18.598;2023-08-30T01:05:11;99568.84;;;19.11;94.92
57048;BME280;42934;54.294;18.598;2023-08-30T01:07:42;99572.06;;;19.14;94.82
57048;BME280;42934;54.294;18.598;2023-08-30T01:10:12;99575.53;;;19.05;95.07
57048;BME280;42934;54.294;18.598;2023-08-30T01:12:45;99565.34;;;18.89;95.99
57048;BME280;42934;54.294;18.598;2023-08-30T01:15:19;99567.28;;;18.87;96.74
57048;BME280;42934;54.294;18.598;2023-08-30T01:17:51;99564.22;;;19.13;95.00
57048;BME280;42934;54.294;18.598;2023-08-30T01:20:24;99561.25;;;18.85;96.56
57048;BME280;42934;54.294;18.598;2023-08-30T01:22:59;99559.78;;;18.92;96.17
57048;BME280;42934;54.294;18.598;2023-08-30T01:25:37;99554.25;;;18.84;97.06
57048;BME280;42934;54.294;18.598;2023-08-30T01:28:10;99553.16;;;18.87;96.67
57048;BME280;42934;54.294;18.598;2023-08-30T01:30:42;99550.59;;;18.85;97.14
57048;BME280;42934;54.294;18.598;2023-08-30T01:33:14;99552.84;;;18.80;97.57
57048;BME280;42934;54.294;18.598;2023-08-30T01:35:44;99548.81;;;18.86;97.38
57048;BME280;42934;54.294;18.598;2023-08-30T01:38:14;99542.50;;;18.87;97.21
57048;BME280;42934;54.294;18.598;2023-08-30T01:40:44;99531.00;;;19.07;95.19
57048;BME280;42934;54.294;18.598;2023-08-30T01:43:16;99531.88;;;18.87;96.72
57048;BME280;42934;54.294;18.598;2023-08-30T01:45:46;99536.72;;;18.81;97.00
57048;BME280;42934;54.294;18.598;2023-08-30T01:48:16;99535.81;;;18.92;96.17
57048;BME280;42934;54.294;18.598;2023-08-30T01:50:46;99544.88;;;19.11;94.72
57048;BME280;42934;54.294;18.598;2023-08-30T01:53:16;99532.06;;;18.95;95.44
57048;BME280;42934;54.294;18.598;2023-08-30T01:55:47;99543.81;;;18.92;95.05
57048;BME280;42934;54.294;18.598;2023-08-30T01:58:17;99542.38;;;19.09;94.42
57048;BME280;42934;54.294;18.598;2023-08-30T02:00:46;99545.63;;;18.92;94.88
57048;BME280;42934;54.294;18.598;2023-08-30T02:03:15;99542.63;;;18.85;95.69
57048;BME280;42934;54.294;18.598;2023-08-30T02:05:56;99541.09;;;18.82;96.05
57048;BME280;42934;54.294;18.598;2023-08-30T02:08:31;99538.66;;;18.79;96.39
57048;BME280;42934;54.294;18.598;2023-08-30T02:11:12;99543.75;;;18.82;96.36
57048;BME280;42934;54.294;18.598;2023-08-30T02:13:45;99543.13;;;19.00;94.99
57048;BME280;42934;54.294;18.598;2023-08-30T02:16:15;99541.25;;;18.91;95.48
57048;BME280;42934;54.294;18.598;2023-08-30T02:18:46;99538.06;;;18.97;95.18
57048;BME280;42934;54.294;18.598;2023-08-30T02:21:17;99535.69;;;18.94;95.29
57048;BME280;42934;54.294;18.598;2023-08-30T02:23:49;99533.44;;;18.89;95.81
57048;BME280;42934;54.294;18.598;2023-08-30T02:26:19;99530.25;;;18.95;94.93
57048;BME280;42934;54.294;18.598;2023-08-30T02:28:50;99516.97;;;19.05;94.76
57048;BME280;42934;54.294;18.598;2023-08-30T02:31:19;99525.81;;;19.05;93.79
57048;BME280;42934;54.294;18.598;2023-08-30T02:33:48;99528.22;;;18.88;95.42
57048;BME280;42934;54.294;18.598;2023-08-30T02:36:17;99528.69;;;18.93;95.62
57048;BME280;42934;54.294;18.598;2023-08-30T02:38:46;99528.38;;;18.86;95.74
57048;BME280;42934;54.294;18.598;2023-08-30T02:41:15;99528.94;;;18.90;95.80
57048;BME280;42934;54.294;18.598;2023-08-30T02:43:44;99527.66;;;18.84;95.99
57048;BME280;42934;54.294;18.598;2023-08-30T02:46:14;99520.41;;;18.86;95.42
57048;BME280;42934;54.294;18.598;2023-08-30T02:48:45;99520.31;;;18.97;95.02
57048;BME280;42934;54.294;18.598;2023-08-30T02:51:14;99518.88;;;18.93;94.64
57048;BME280;42934;54.294;18.598;2023-08-30T02:53:44;99522.88;;;19.09;93.55
57048;BME280;42934;54.294;18.598;2023-08-30T02:56:13;99527.91;;;19.02;93.76
57048;BME280;42934;54.294;18.598;2023-08-30T02:58:42;99531.59;;;18.90;94.74
57048;BME280;42934;54.294;18.598;2023-08-30T03:01:11;99530.56;;;18.81;95.29
57048;BME280;42934;54.294;18.598;2023-08-30T03:03:41;99535.00;;;18.92;94.71
57048;BME280;42934;54.294;18.598;2023-08-30T03:06:11;99532.78;;;18.76;95.47
57048;BME280;42934;54.294;18.598;2023-08-30T03:08:41;99530.97;;;18.97;94.27
57048;BME280;42934;54.294;18.598;2023-08-30T03:11:11;99525.69;;;19.07;93.95
57048;BME280;42934;54.294;18.598;2023-08-30T03:13:47;99530.84;;;18.78;95.10
57048;BME280;42934;54.294;18.598;2023-08-30T03:16:16;99529.28;;;18.75;95.53
57048;BME280;42934;54.294;18.598;2023-08-30T03:18:47;99531.53;;;19.01;93.90
57048;BME280;42934;54.294;18.598;2023-08-30T03:21:16;99524.09;;;18.95;93.74
57048;BME280;42934;54.294;18.598;2023-08-30T03:23:45;99542.44;;;18.98;93.54
57048;BME280;42934;54.294;18.598;2023-08-30T03:26:15;99541.94;;;18.83;94.18
57048;BME280;42934;54.294;18.598;2023-08-30T03:28:45;99538.44;;;18.82;94.33
57048;BME280;42934;54.294;18.598;2023-08-30T03:31:14;99541.63;;;18.65;95.56
57048;BME280;42934;54.294;18.598;2023-08-30T03:33:46;99544.72;;;18.70;95.48
57048;BME280;42934;54.294;18.598;2023-08-30T03:36:17;99545.22;;;18.75;94.58
57048;BME280;42934;54.294;18.598;2023-08-30T03:38:46;99545.69;;;19.01;94.26
57048;BME280;42934;54.294;18.598;2023-08-30T03:41:15;99550.03;;;18.81;93.97
57048;BME280;42934;54.294;18.598;2023-08-30T03:43:45;99552.47;;;18.73;94.62
57048;BME280;42934;54.294;18.598;2023-08-30T03:46:14;99556.34;;;18.69;94.78
57048;BME280;42934;54.294;18.598;2023-08-30T03:48:43;99558.34;;;18.56;95.72
57048;BME280;42934;54.294;18.598;2023-08-30T03:51:13;99551.22;;;18.56;95.42
57048;BME280;42934;54.294;18.598;2023-08-30T03:53:42;99553.22;;;18.64;95.28
57048;BME280;42934;54.294;18.598;2023-08-30T03:56:11;99557.72;;;18.64;94.53
57048;BME280;42934;54.294;18.598;2023-08-30T03:58:40;99563.84;;;18.64;94.77
57048;BME280;42934;54.294;18.598;2023-08-30T04:01:09;99565.94;;;18.60;94.68
57048;BME280;42934;54.294;18.598;2023-08-30T04:03:38;99565.94;;;18.60;95.12
57048;BME280;42934;54.294;18.598;2023-08-30T04:06:08;99567.28;;;18.55;95.59
57048;BME280;42934;54.294;18.598;2023-08-30T04:08:38;99552.78;;;18.59;95.47
57048;BME280;42934;54.294;18.598;2023-08-30T04:11:07;99568.09;;;18.34;96.49
57048;BME280;42934;54.294;18.598;2023-08-30T04:13:36;99557.97;;;18.60;95.69
57048;BME280;42934;54.294;18.598;2023-08-30T04:16:05;99563.06;;;18.52;95.73
57048;BME280;42934;54.294;18.598;2023-08-30T04:18:34;99564.31;;;18.48;96.54
57048;BME280;42934;54.294;18.598;2023-08-30T04:21:03;99564.78;;;18.53;95.93
57048;BME280;42934;54.294;18.598;2023-08-30T04:23:33;99558.53;;;18.64;95.53
57048;BME280;42934;54.294;18.598;2023-08-30T04:26:04;99567.03;;;18.58;95.49
57048;BME280;42934;54.294;18.598;2023-08-30T04:28:34;99567.44;;;18.53;96.04
57048;BME280;42934;54.294;18.598;2023-08-30T04:31:03;99565.72;;;18.52;96.36
57048;BME280;42934;54.294;18.598;2023-08-30T04:33:32;99569.16;;;18.75;94.99
57048;BME280;42934;54.294;18.598;2023-08-30T04:36:02;99567.53;;;18.84;94.84
57048;BME280;42934;54.294;18.598;2023-08-30T04:38:32;99568.59;;;18.93;93.95
57048;BME280;42934;54.294;18.598;2023-08-30T04:41:08;99565.56;;;18.65;94.78
57048;BME280;42934;54.294;18.598;2023-08-30T04:43:37;99567.47;;;18.74;94.17
57048;BME280;42934;54.294;18.598;2023-08-30T04:46:06;99566.78;;;18.61;95.02
57048;BME280;42934;54.294;18.598;2023-08-30T04:48:35;99574.28;;;18.56;95.27
57048;BME280;42934;54.294;18.598;2023-08-30T04:51:05;99561.41;;;18.72;93.83
57048;BME280;42934;54.294;18.598;2023-08-30T04:53:34;99564.06;;;18.72;93.73
57048;BME280;42934;54.294;18.598;2023-08-30T04:56:12;99562.91;;;18.65;94.77
57048;BME280;42934;54.294;18.598;2023-08-30T04:58:41;99560.38;;;18.64;93.38
57048;BME280;42934;54.294;18.598;2023-08-30T05:01:12;99562.66;;;18.68;93.24
57048;BME280;42934;54.294;18.598;2023-08-30T05:03:45;99557.63;;;18.54;94.53
57048;BME280;42934;54.294;18.598;2023-08-30T05:06:16;99546.84;;;18.55;94.29
57048;BME280;42934;54.294;18.598;2023-08-30T05:08:45;99550.75;;;18.51;94.94
57048;BME280;42934;54.294;18.598;2023-08-30T05:11:15;99552.94;;;18.46;94.68
57048;BME280;42934;54.294;18.598;2023-08-30T05:13:44;99542.16;;;18.59;94.39
57048;BME280;42934;54.294;18.598;2023-08-30T05:16:14;99552.78;;;18.59;94.29
57048;BME280;42934;54.294;18.598;2023-08-30T05:18:43;99561.97;;;18.55;94.74
57048;BME280;42934;54.294;18.598;2023-08-30T05:21:12;99570.09;;;18.53;95.04
57048;BME280;42934;54.294;18.598;2023-08-30T05:23:41;99567.22;;;18.45;95.31
57048;BME280;42934;54.294;18.598;2023-08-30T05:26:10;99567.53;;;18.52;95.09
57048;BME280;42934;54.294;18.598;2023-08-30T05:28:42;99569.09;;;18.54;95.04
57048;BME280;42934;54.294;18.598;2023-08-30T05:31:11;99562.38;;;18.50;95.06
57048;BME280;42934;54.294;18.598;2023-08-30T05:34:02;99558.16;;;18.48;95.18
57048;BME280;42934;54.294;18.598;2023-08-30T05:37:01;99565.41;;;18.46;95.55
57048;BME280;42934;54.294;18.598;2023-08-30T05:39:50;99563.09;;;18.41;95.75
57048;BME280;42934;54.294;18.598;2023-08-30T05:42:19;99556.28;;;18.59;94.94
57048;BME280;42934;54.294;18.598;2023-08-30T05:44:50;99564.97;;;18.61;94.56
57048;BME280;42934;54.294;18.598;2023-08-30T05:47:20;99568.97;;;18.56;94.46
57048;BME280;42934;54.294;18.598;2023-08-30T05:49:50;99572.88;;;18.73;93.48
57048;BME280;42934;54.294;18.598;2023-08-30T05:52:20;99578.97;;;18.64;94.24
57048;BME280;42934;54.294;18.598;2023-08-30T05:54:49;99580.38;;;18.79;93.16
57048;BME280;42934;54.294;18.598;2023-08-30T05:57:18;99575.91;;;18.79;92.77
57048;BME280;42934;54.294;18.598;2023-08-30T05:59:51;99576.84;;;18.57;94.03
57048;BME280;42934;54.294;18.598;2023-08-30T06:02:20;99586.03;;;18.53;94.55
57048;BME280;42934;54.294;18.598;2023-08-30T06:04:49;99581.88;;;18.60;94.83
57048;BME280;42934;54.294;18.598;2023-08-30T06:07:18;99582.03;;;18.59;94.05
57048;BME280;42934;54.294;18.598;2023-08-30T06:09:47;99579.16;;;18.51;94.41
57048;BME280;42934;54.294;18.598;2023-08-30T06:12:16;99586.75;;;18.55;94.77
57048;BME280;42934;54.294;18.598;2023-08-30T06:14:45;99585.00;;;18.45;95.03
57048;BME280;42934;54.294;18.598;2023-08-30T06:17:21;99585.31;;;18.51;93.96
57048;BME280;42934;54.294;18.598;2023-08-30T06:19:50;99591.00;;;18.47;94.87
57048;BME280;42934;54.294;18.598;2023-08-30T06:22:19;99582.13;;;18.36;95.57
57048;BME280;42934;54.294;18.598;2023-08-30T06:24:48;99584.25;;;18.43;95.32
57048;BME280;42934;54.294;18.598;2023-08-30T06:27:17;99591.88;;;18.47;95.51
57048;BME280;42934;54.294;18.598;2023-08-30T06:29:46;99592.16;;;18.65;94.36
57048;BME280;42934;54.294;18.598;2023-08-30T06:32:15;99599.19;;;18.55;95.16
57048;BME280;42934;54.294;18.598;2023-08-30T06:34:46;99607.38;;;18.63;94.32
57048;BME280;42934;54.294;18.598;2023-08-30T06:37:15;99602.84;;;18.54;94.59
57048;BME280;42934;54.294;18.598;2023-08-30T06:39:44;99601.75;;;18.56;94.96
57048;BME280;42934;54.294;18.598;2023-08-30T06:42:13;99594.28;;;18.82;93.31
57048;BME280;42934;54.294;18.598;2023-08-30T06:44:42;99596.16;;;18.92;91.87
57048;BME280;42934;54.294;18.598;2023-08-30T06:47:11;99607.97;;;18.78;92.72
57048;BME280;42934;54.294;18.598;2023-08-30T06:49:40;99603.38;;;18.69;93.12
57048;BME280;42934;54.294;18.598;2023-08-30T06:52:11;99603.63;;;18.66;93.89
57048;BME280;42934;54.294;18.598;2023-08-30T06:54:40;99598.56;;;18.74;93.46
57048;BME280;42934;54.294;18.598;2023-08-30T06:57:09;99603.00;;;18.73;93.88
57048;BME280;42934;54.294;18.598;2023-08-30T06:59:38;99602.41;;;18.70;94.13
57048;BME280;42934;54.294;18.598;2023-08-30T07:02:07;99608.81;;;18.67;94.21
57048;BME280;42934;54.294;18.598;2023-08-30T07:04:35;99605.16;;;18.79;94.15
57048;BME280;42934;54.294;18.598;2023-08-30T07:07:04;99616.78;;;18.78;93.52
57048;BME280;42934;54.294;18.598;2023-08-30T07:09:35;99615.22;;;18.76;93.85
57048;BME280;42934;54.294;18.598;2023-08-30T07:12:04;99611.59;;;18.77;93.59
57048;BME280;42934;54.294;18.598;2023-08-30T07:14:33;99603.22;;;18.81;93.58
57048;BME280;42934;54.294;18.598;2023-08-30T07:17:02;99602.44;;;18.91;92.97
57048;BME280;42934;54.294;18.598;2023-08-30T07:19:31;99605.00;;;18.92;92.88
57048;BME280;42934;54.294;18.598;2023-08-30T07:22:00;99602.44;;;18.91;93.05
57048;BME280;42934;54.294;18.598;2023-08-30T07:24:30;99606.81;;;18.92;92.93
57048;BME280;42934;54.294;18.598;2023-08-30T07:27:00;99612.25;;;19.11;91.53
57048;BME280;42934;54.294;18.598;2023-08-30T07:29:29;99613.22;;;19.10;91.01
57048;BME280;42934;54.294;18.598;2023-08-30T07:31:59;99618.56;;;19.10;91.16
57048;BME280;42934;54.294;18.598;2023-08-30T07:34:28;99627.56;;;18.98;91.91
57048;BME280;42934;54.294;18.598;2023-08-30T07:36:57;99627.88;;;19.04;91.47
57048;BME280;42934;54.294;18.598;2023-08-30T07:39:26;99632.56;;;19.12;90.35
57048;BME280;42934;54.294;18.598;2023-08-30T07:41:55;99644.44;;;19.08;90.52
57048;BME280;42934;54.294;18.598;2023-08-30T07:44:26;99642.63;;;19.09;90.33
57048;BME280;42934;54.294;18.598;2023-08-30T07:46:55;99649.53;;;19.00;90.24
57048;BME280;42934;54.294;18.598;2023-08-30T07:49:24;99650.84;;;19.05;89.70
57048;BME280;42934;54.294;18.598;2023-08-30T07:51:53;99651.38;;;18.99;89.92
57048;BME280;42934;54.294;18.598;2023-08-30T07:54:22;99648.38;;;18.93;90.32
57048;BME280;42934;54.294;18.598;2023-08-30T07:56:51;99652.81;;;19.03;89.60
57048;BME280;42934;54.294;18.598;2023-08-30T07:59:20;99652.81;;;18.82;89.86
57048;BME280;42934;54.294;18.598;2023-08-30T08:01:51;99652.81;;;18.82;91.05
57048;BME280;42934;54.294;18.598;2023-08-30T08:04:20;99656.28;;;18.83;91.01
57048;BME280;42934;54.294;18.598;2023-08-30T08:06:49;99655.94;;;18.76;91.45
57048;BME280;42934;54.294;18.598;2023-08-30T08:09:23;99651.16;;;18.91;91.28
57048;BME280;42934;54.294;18.598;2023-08-30T08:11:53;99656.47;;;18.91;91.43
57048;BME280;42934;54.294;18.598;2023-08-30T08:14:23;99663.00;;;18.98;91.15
57048;BME280;42934;54.294;18.598;2023-08-30T08:16:54;99665.19;;;18.93;91.14
57048;BME280;42934;54.294;18.598;2023-08-30T08:19:23;99665.50;;;19.00;91.18
57048;BME280;42934;54.294;18.598;2023-08-30T08:21:53;99658.72;;;19.07;90.94
57048;BME280;42934;54.294;18.598;2023-08-30T08:24:22;99655.22;;;19.06;91.03
57048;BME280;42934;54.294;18.598;2023-08-30T08:26:51;99646.72;;;19.13;90.94
57048;BME280;42934;54.294;18.598;2023-08-30T08:29:20;99652.41;;;19.08;91.20
57048;BME280;42934;54.294;18.598;2023-08-30T08:31:49;99647.19;;;19.18;90.64
57048;BME280;42934;54.294;18.598;2023-08-30T08:34:20;99652.75;;;19.15;91.42
57048;BME280;42934;54.294;18.598;2023-08-30T08:36:52;99652.38;;;19.19;90.94
57048;BME280;42934;54.294;18.598;2023-08-30T08:39:21;99649.19;;;19.25;89.89
57048;BME280;42934;54.294;18.598;2023-08-30T08:41:52;99652.38;;;19.19;89.57
57048;BME280;42934;54.294;18.598;2023-08-30T08:44:23;99651.63;;;19.17;89.50
57048;BME280;42934;54.294;18.598;2023-08-30T08:46:55;99656.94;;;19.38;88.36
57048;BME280;42934;54.294;18.598;2023-08-30T08:49:26;99661.50;;;19.26;88.24
57048;BME280;42934;54.294;18.598;2023-08-30T08:51:57;99665.16;;;19.25;88.30
57048;BME280;42934;54.294;18.598;2023-08-30T08:54:31;99665.97;;;19.26;88.73
57048;BME280;42934;54.294;18.598;2023-08-30T08:57:01;99669.63;;;19.25;88.93
57048;BME280;42934;54.294;18.598;2023-08-30T08:59:30;99667.03;;;19.35;88.32
57048;BME280;42934;54.294;18.598;2023-08-30T09:02:00;99665.28;;;19.24;88.66
57048;BME280;42934;54.294;18.598;2023-08-30T09:04:31;99674.38;;;19.42;87.74
57048;BME280;42934;54.294;18.598;2023-08-30T09:07:00;99677.56;;;19.36;88.21
57048;BME280;42934;54.294;18.598;2023-08-30T09:09:30;99688.59;;;19.32;88.08
57048;BME280;42934;54.294;18.598;2023-08-30T09:11:59;99684.75;;;19.45;87.33
57048;BME280;42934;54.294;18.598;2023-08-30T09:14:28;99684.88;;;19.44;85.97
57048;BME280;42934;54.294;18.598;2023-08-30T09:16:57;99691.56;;;19.38;85.75
57048;BME280;42934;54.294;18.598;2023-08-30T09:19:30;99691.97;;;19.34;85.17
57048;BME280;42934;54.294;18.598;2023-08-30T09:21:59;99694.88;;;19.31;85.60
57048;BME280;42934;54.294;18.598;2023-08-30T09:24:38;99694.31;;;19.27;85.89
57048;BME280;42934;54.294;18.598;2023-08-30T09:27:07;99692.81;;;19.34;85.91
57048;BME280;42934;54.294;18.598;2023-08-30T09:29:36;99685.28;;;19.39;85.71
57048;BME280;42934;54.294;18.598;2023-08-30T09:32:08;99691.75;;;19.46;84.95
57048;BME280;42934;54.294;18.598;2023-08-30T09:34:46;99688.78;;;19.19;86.03
57048;BME280;42934;54.294;18.598;2023-08-30T09:37:20;99690.88;;;19.36;85.90
57048;BME280;42934;54.294;18.598;2023-08-30T09:39:50;99692.22;;;19.31;85.88
57048;BME280;42934;54.294;18.598;2023-08-30T09:42:19;99691.50;;;19.28;86.16
57048;BME280;42934;54.294;18.598;2023-08-30T09:44:48;99692.69;;;19.36;85.58
57048;BME280;42934;54.294;18.598;2023-08-30T09:47:17;99702.63;;;19.34;85.72
57048;BME280;42934;54.294;18.598;2023-08-30T09:49:49;99701.44;;;19.26;86.13
57048;BME280;42934;54.294;18.598;2023-08-30T09:52:23;99705.53;;;19.31;85.62
57048;BME280;42934;54.294;18.598;2023-08-30T09:54:52;99709.50;;;19.15;85.78
57048;BME280;42934;54.294;18.598;2023-08-30T09:57:22;99698.91;;;19.25;85.93
57048;BME280;42934;54.294;18.598;2023-08-30T09:59:51;99688.47;;;19.12;86.63
57048;BME280;42934;54.294;18.598;2023-08-30T10:02:21;99689.69;;;19.29;85.70
57048;BME280;42934;54.294;18.598;2023-08-30T10:04:52;99682.94;;;19.25;85.82
57048;BME280;42934;54.294;18.598;2023-08-30T10:07:23;99692.75;;;19.24;86.36
57048;BME280;42934;54.294;18.598;2023-08-30T10:09:52;99692.09;;;19.32;86.39
57048;BME280;42934;54.294;18.598;2023-08-30T10:12:36;99698.72;;;19.38;85.93
57048;BME280;42934;54.294;18.598;2023-08-30T10:15:06;99701.06;;;19.31;86.33
57048;BME280;42934;54.294;18.598;2023-08-30T10:17:36;99703.34;;;19.36;86.15
57048;BME280;42934;54.294;18.598;2023-08-30T10:20:08;99707.88;;;19.24;86.84
57048;BME280;42934;54.294;18.598;2023-08-30T10:22:41;99715.78;;;19.35;86.20
57048;BME280;42934;54.294;18.598;2023-08-30T10:25:14;99716.03;;;19.32;85.83
57048;BME280;42934;54.294;18.598;2023-08-30T10:27:48;99717.03;;;19.31;86.00
57048;BME280;42934;54.294;18.598;2023-08-30T10:30:19;99712.22;;;19.25;85.93
57048;BME280;42934;54.294;18.598;2023-08-30T10:32:49;99715.13;;;19.22;86.40
57048;BME280;42934;54.294;18.598;2023-08-30T10:35:20;99712.69;;;19.30;85.98
57048;BME280;42934;54.294;18.598;2023-08-30T10:37:55;99705.28;;;19.34;85.73
57048;BME280;42934;54.294;18.598;2023-08-30T10:40:24;99712.28;;;19.35;85.74
57048;BME280;42934;54.294;18.598;2023-08-30T10:43:00;99710.09;;;19.40;85.13
57048;BME280;42934;54.294;18.598;2023-08-30T10:45:29;99712.59;;;19.20;86.21
57048;BME280;42934;54.294;18.598;2023-08-30T10:47:59;99710.59;;;19.34;85.51
57048;BME280;42934;54.294;18.598;2023-08-30T10:50:31;99713.63;;;19.29;85.79
57048;BME280;42934;54.294;18.598;2023-08-30T10:53:00;99715.88;;;19.24;85.69
57048;BME280;42934;54.294;18.598;2023-08-30T10:55:31;99709.66;;;19.23;85.35
57048;BME280;42934;54.294;18.598;2023-08-30T10:58:02;99710.44;;;19.14;85.99
57048;BME280;42934;54.294;18.598;2023-08-30T11:00:32;99712.47;;;19.22;85.77
57048;BME280;42934;54.294;18.598;2023-08-30T11:03:04;99708.56;;;19.26;85.84
57048;BME280;42934;54.294;18.598;2023-08-30T11:05:41;99711.13;;;19.27;85.81
57048;BME280;42934;54.294;18.598;2023-08-30T11:08:11;99706.16;;;19.23;85.93
57048;BME280;42934;54.294;18.598;2023-08-30T11:10:40;99705.28;;;19.55;84.74
57048;BME280;42934;54.294;18.598;2023-08-30T11:13:10;99701.09;;;19.20;84.68
57048;BME280;42934;54.294;18.598;2023-08-30T11:15:43;99708.91;;;19.33;84.89
57048;BME280;42934;54.294;18.598;2023-08-30T11:18:12;99704.09;;;19.26;85.17
57048;BME280;42934;54.294;18.598;2023-08-30T11:20:43;99702.66;;;19.22;85.69
57048;BME280;42934;54.294;18.598;2023-08-30T11:23:12;99712.00;;;19.17;85.49
57048;BME280;42934;54.294;18.598;2023-08-30T11:25:41;99694.47;;;19.14;85.92
57048;BME280;42934;54.294;18.598;2023-08-30T11:28:10;99698.91;;;19.25;85.12
57048;BME280;42934;54.294;18.598;2023-08-30T11:30:40;99700.31;;;19.29;84.96
57048;BME280;42934;54.294;18.598;2023-08-30T11:33:09;99692.22;;;19.31;84.47
57048;BME280;42934;54.294;18.598;2023-08-30T11:35:39;99695.53;;;19.23;84.92
57048;BME280;42934;54.294;18.598;2023-08-30T11:38:10;99688.78;;;19.40;84.85
57048;BME280;42934;54.294;18.598;2023-08-30T11:40:39;99690.03;;;19.36;84.55
57048;BME280;42934;54.294;18.598;2023-08-30T11:43:08;99692.22;;;19.31;85.13
57048;BME280;42934;54.294;18.598;2023-08-30T11:45:39;99692.34;;;19.29;85.13
57048;BME280;42934;54.294;18.598;2023-08-30T11:48:08;99692.22;;;19.31;85.26
57048;BME280;42934;54.294;18.598;2023-08-30T11:50:38;99691.50;;;19.28;85.38
57048;BME280;42934;54.294;18.598;2023-08-30T11:53:17;99689.03;;;19.37;85.38
57048;BME280;42934;54.294;18.598;2023-08-30T11:55:46;99671.03;;;19.29;85.01
57048;BME280;42934;54.294;18.598;2023-08-30T11:58:17;99667.28;;;19.32;85.55
57048;BME280;42934;54.294;18.598;2023-08-30T12:00:48;99671.50;;;19.34;85.36
57048;BME280;42934;54.294;18.598;2023-08-30T12:03:18;99676.19;;;19.42;84.81
57048;BME280;42934;54.294;18.598;2023-08-30T12:05:48;99679.44;;;19.45;84.62
57048;BME280;42934;54.294;18.598;2023-08-30T12:08:21;99677.94;;;19.32;84.15
57048;BME280;42934;54.294;18.598;2023-08-30T12:10:52;99678.44;;;19.25;84.93
57048;BME280;42934;54.294;18.598;2023-08-30T12:13:22;99670.66;;;19.34;84.89
57048;BME280;42934;54.294;18.598;2023-08-30T12:15:51;99676.56;;;19.37;84.81
57048;BME280;42934;54.294;18.598;2023-08-30T12:18:21;99676.72;;;19.36;84.96
57048;BME280;42934;54.294;18.598;2023-08-30T12:20:53;99683.09;;;19.44;84.16
57048;BME280;42934;54.294;18.598;2023-08-30T12:23:26;99682.09;;;19.24;85.04
57048;BME280;42934;54.294;18.598;2023-08-30T12:26:02;99670.78;;;19.32;84.67
57048;BME280;42934;54.294;18.598;2023-08-30T12:28:33;99673.19;;;19.35;84.66
57048;BME280;42934;54.294;18.598;2023-08-30T12:31:03;99671.03;;;19.29;85.00
57048;BME280;42934;54.294;18.598;2023-08-30T12:33:34;99674.91;;;19.36;84.55
57048;BME280;42934;54.294;18.598;2023-08-30T12:36:04;99679.13;;;19.18;84.37
57048;BME280;42934;54.294;18.598;2023-08-30T12:38:34;99686.59;;;19.24;84.04
57048;BME280;42934;54.294;18.598;2023-08-30T12:41:03;99686.13;;;19.19;84.84
57048;BME280;42934;54.294;18.598;2023-08-30T12:43:33;99686.22;;;19.38;83.85
57048;BME280;42934;54.294;18.598;2023-08-30T12:46:01;99684.44;;;19.18;83.58
57048;BME280;42934;54.294;18.598;2023-08-30T12:48:32;99684.28;;;19.19;84.62
57048;BME280;42934;54.294;18.598;2023-08-30T12:51:01;99686.31;;;19.27;83.87
57048;BME280;42934;54.294;18.598;2023-08-30T12:53:31;99691.91;;;19.24;84.41
57048;BME280;42934;54.294;18.598;2023-08-30T12:56:01;99685.03;;;19.21;84.04
57048;BME280;42934;54.294;18.598;2023-08-30T12:58:32;99688.59;;;19.32;83.38
57048;BME280;42934;54.294;18.598;2023-08-30T13:01:01;99694.56;;;19.24;83.62
57048;BME280;42934;54.294;18.598;2023-08-30T13:03:32;99682.63;;;19.18;83.87
57048;BME280;42934;54.294;18.598;2023-08-30T13:06:01;99690.34;;;19.21;83.74